Terminal Aerodrome Forecast
Issued by NWS Omaha/Valley, NE

Home | Current Version | Previous Version | Graphics & Text | Print | Product List | Glossary On
Versions: 1 2 3 4 5 6 7 8 9 10 11 12 13 14 15 16 17 18 19 20 21 22 23 24 25 26 27 28 29 30 31 32 33 34 35 36 37 38 39 40 41 42
000
FTUS43 KOAX 221740
TAFOFK
TAF
KOFK 221740Z 2218/2318 14015G24KT P6SM BKN070
     FM230800 16012G21KT P6SM BKN025
     FM230900 16012G20KT P6SM OVC015
     FM231200 16012G21KT 5SM -DZ OVC008=

USA.gov is the U.S. government's official web portal to all federal, state and local government web resources and services.